sensor_id;sensor_type;location;lat;lon;timestamp;temperature;humidity
7472;DHT22;3777;48.722;8.110;2024-02-14T00:02:22;7.40;99.90
7472;DHT22;3777;48.722;8.110;2024-02-14T00:04:51;7.50;99.90
7472;DHT22;3777;48.722;8.110;2024-02-14T00:07:18;7.60;99.90
7472;DHT22;3777;48.722;8.110;2024-02-14T00:09:45;7.70;99.90
7472;DHT22;3777;48.722;8.110;2024-02-14T00:12:13;7.90;99.90
7472;DHT22;3777;48.722;8.110;2024-02-14T00:14:40;8.00;99.90
7472;DHT22;3777;48.722;8.110;2024-02-14T00:17:08;8.10;99.90
7472;DHT22;3777;48.722;8.110;2024-02-14T00:19:36;8.20;99.90
7472;DHT22;3777;48.722;8.110;2024-02-14T00:22:03;8.30;99.90
7472;DHT22;3777;48.722;8.110;2024-02-14T00:24:29;8.40;99.90
7472;DHT22;3777;48.722;8.110;2024-02-14T00:26:57;8.40;99.90
7472;DHT22;3777;48.722;8.110;2024-02-14T00:29:27;8.50;99.90
7472;DHT22;3777;48.722;8.110;2024-02-14T00:31:54;8.50;99.90
7472;DHT22;3777;48.722;8.110;2024-02-14T00:34:20;8.60;99.90
7472;DHT22;3777;48.722;8.110;2024-02-14T00:36:47;8.60;99.90
7472;DHT22;3777;48.722;8.110;2024-02-14T00:39:14;8.70;99.90
7472;DHT22;3777;48.722;8.110;2024-02-14T00:41:41;8.80;99.90
7472;DHT22;3777;48.722;8.110;2024-02-14T00:44:08;8.80;99.90
7472;DHT22;3777;48.722;8.110;2024-02-14T00:46:36;8.80;99.90
7472;DHT22;3777;48.722;8.110;2024-02-14T00:49:02;8.90;99.90
7472;DHT22;3777;48.722;8.110;2024-02-14T00:51:29;8.90;99.90
7472;DHT22;3777;48.722;8.110;2024-02-14T00:53:56;8.90;99.90
7472;DHT22;3777;48.722;8.110;2024-02-14T00:56:23;8.90;99.90
7472;DHT22;3777;48.722;8.110;2024-02-14T00:58:50;8.90;99.90
7472;DHT22;3777;48.722;8.110;2024-02-14T01:01:17;8.90;99.90
7472;DHT22;3777;48.722;8.110;2024-02-14T01:03:45;8.90;99.90
7472;DHT22;3777;48.722;8.110;2024-02-14T01:06:12;9.00;99.90
7472;DHT22;3777;48.722;8.110;2024-02-14T01:08:39;9.00;99.90
7472;DHT22;3777;48.722;8.110;2024-02-14T01:11:07;9.00;99.90
7472;DHT22;3777;48.722;8.110;2024-02-14T01:13:33;9.00;99.90
7472;DHT22;3777;48.722;8.110;2024-02-14T01:16:00;9.00;99.90
7472;DHT22;3777;48.722;8.110;2024-02-14T01:18:27;9.00;99.90
7472;DHT22;3777;48.722;8.110;2024-02-14T01:20:55;8.90;99.90
7472;DHT22;3777;48.722;8.110;2024-02-14T01:23:24;8.80;99.90
7472;DHT22;3777;48.722;8.110;2024-02-14T01:25:51;8.80;99.90
7472;DHT22;3777;48.722;8.110;2024-02-14T01:28:20;8.70;99.90
7472;DHT22;3777;48.722;8.110;2024-02-14T01:30:46;8.60;99.90
7472;DHT22;3777;48.722;8.110;2024-02-14T01:33:13;8.60;99.90
7472;DHT22;3777;48.722;8.110;2024-02-14T01:35:42;8.60;99.90
7472;DHT22;3777;48.722;8.110;2024-02-14T01:38:10;8.70;99.90
7472;DHT22;3777;48.722;8.110;2024-02-14T01:40:38;8.60;99.90
7472;DHT22;3777;48.722;8.110;2024-02-14T01:43:05;8.70;99.90
7472;DHT22;3777;48.722;8.110;2024-02-14T01:45:32;8.70;99.90
7472;DHT22;3777;48.722;8.110;2024-02-14T01:47:58;8.70;99.90
7472;DHT22;3777;48.722;8.110;2024-02-14T01:50:25;8.60;99.90
7472;DHT22;3777;48.722;8.110;2024-02-14T01:52:56;8.60;99.90
7472;DHT22;3777;48.722;8.110;2024-02-14T01:55:26;8.60;99.90
7472;DHT22;3777;48.722;8.110;2024-02-14T01:57:54;8.70;99.90
7472;DHT22;3777;48.722;8.110;2024-02-14T02:00:21;8.70;99.90
7472;DHT22;3777;48.722;8.110;2024-02-14T02:02:48;8.70;99.90
7472;DHT22;3777;48.722;8.110;2024-02-14T02:05:15;8.70;99.90
7472;DHT22;3777;48.722;8.110;2024-02-14T02:07:42;8.70;99.90
7472;DHT22;3777;48.722;8.110;2024-02-14T02:10:11;8.70;99.90
7472;DHT22;3777;48.722;8.110;2024-02-14T02:12:39;8.70;99.90
7472;DHT22;3777;48.722;8.110;2024-02-14T02:15:07;8.70;99.90
7472;DHT22;3777;48.722;8.110;2024-02-14T02:17:36;8.70;99.90
7472;DHT22;3777;48.722;8.110;2024-02-14T02:20:03;8.60;99.90
7472;DHT22;3777;48.722;8.110;2024-02-14T02:22:32;8.60;99.90
7472;DHT22;3777;48.722;8.110;2024-02-14T02:25:02;8.60;99.90
7472;DHT22;3777;48.722;8.110;2024-02-14T02:27:33;8.50;99.90
7472;DHT22;3777;48.722;8.110;2024-02-14T02:30:03;8.50;99.90
7472;DHT22;3777;48.722;8.110;2024-02-14T02:32:30;8.50;99.90
7472;DHT22;3777;48.722;8.110;2024-02-14T02:34:57;8.50;99.90
7472;DHT22;3777;48.722;8.110;2024-02-14T02:37:25;8.50;99.90
7472;DHT22;3777;48.722;8.110;2024-02-14T02:39:55;8.50;99.90
7472;DHT22;3777;48.722;8.110;2024-02-14T02:42:23;8.50;99.90
7472;DHT22;3777;48.722;8.110;2024-02-14T02:44:50;8.60;99.90
7472;DHT22;3777;48.722;8.110;2024-02-14T02:47:17;8.60;99.90
7472;DHT22;3777;48.722;8.110;2024-02-14T02:49:44;8.70;99.90
7472;DHT22;3777;48.722;8.110;2024-02-14T02:52:11;8.70;99.90
7472;DHT22;3777;48.722;8.110;2024-02-14T02:54:38;8.70;99.90
7472;DHT22;3777;48.722;8.110;2024-02-14T02:57:06;8.90;99.90
7472;DHT22;3777;48.722;8.110;2024-02-14T02:59:35;9.00;99.90
7472;DHT22;3777;48.722;8.110;2024-02-14T03:02:02;9.10;99.90
7472;DHT22;3777;48.722;8.110;2024-02-14T03:04:29;9.10;99.90
7472;DHT22;3777;48.722;8.110;2024-02-14T03:06:57;9.20;99.90
7472;DHT22;3777;48.722;8.110;2024-02-14T03:09:24;9.30;99.90
7472;DHT22;3777;48.722;8.110;2024-02-14T03:11:53;9.40;99.90
7472;DHT22;3777;48.722;8.110;2024-02-14T03:14:22;9.40;99.90
7472;DHT22;3777;48.722;8.110;2024-02-14T03:16:50;9.40;99.90
7472;DHT22;3777;48.722;8.110;2024-02-14T03:19:17;9.40;99.90
7472;DHT22;3777;48.722;8.110;2024-02-14T03:21:44;9.60;99.90
7472;DHT22;3777;48.722;8.110;2024-02-14T03:24:12;9.60;99.90
7472;DHT22;3777;48.722;8.110;2024-02-14T03:26:40;9.70;99.90
7472;DHT22;3777;48.722;8.110;2024-02-14T03:29:07;9.80;99.90
7472;DHT22;3777;48.722;8.110;2024-02-14T03:31:34;9.80;99.90
7472;DHT22;3777;48.722;8.110;2024-02-14T03:34:03;9.90;99.90
7472;DHT22;3777;48.722;8.110;2024-02-14T03:36:30;9.90;99.90
7472;DHT22;3777;48.722;8.110;2024-02-14T03:38:58;10.00;99.90
7472;DHT22;3777;48.722;8.110;2024-02-14T03:41:29;10.00;99.90
7472;DHT22;3777;48.722;8.110;2024-02-14T03:43:56;10.00;99.90
7472;DHT22;3777;48.722;8.110;2024-02-14T03:46:26;10.00;99.90
7472;DHT22;3777;48.722;8.110;2024-02-14T03:48:53;10.00;99.90
7472;DHT22;3777;48.722;8.110;2024-02-14T03:51:22;10.00;99.90
7472;DHT22;3777;48.722;8.110;2024-02-14T03:53:49;10.00;99.90
7472;DHT22;3777;48.722;8.110;2024-02-14T03:56:16;10.00;99.90
7472;DHT22;3777;48.722;8.110;2024-02-14T03:58:43;10.10;99.90
7472;DHT22;3777;48.722;8.110;2024-02-14T04:01:12;10.10;99.90
7472;DHT22;3777;48.722;8.110;2024-02-14T04:03:39;10.10;99.90
7472;DHT22;3777;48.722;8.110;2024-02-14T04:06:06;10.20;99.90
7472;DHT22;3777;48.722;8.110;2024-02-14T04:08:34;10.10;99.90
7472;DHT22;3777;48.722;8.110;2024-02-14T04:11:01;10.20;99.90
7472;DHT22;3777;48.722;8.110;2024-02-14T04:13:28;10.30;99.90
7472;DHT22;3777;48.722;8.110;2024-02-14T04:15:55;10.30;99.90
7472;DHT22;3777;48.722;8.110;2024-02-14T04:18:21;10.30;99.90
7472;DHT22;3777;48.722;8.110;2024-02-14T04:20:48;10.40;99.90
7472;DHT22;3777;48.722;8.110;2024-02-14T04:23:15;10.30;99.90
7472;DHT22;3777;48.722;8.110;2024-02-14T04:25:43;10.40;99.90
7472;DHT22;3777;48.722;8.110;2024-02-14T04:28:10;10.40;99.90
7472;DHT22;3777;48.722;8.110;2024-02-14T04:30:37;10.40;99.90
7472;DHT22;3777;48.722;8.110;2024-02-14T04:33:04;10.40;99.90
7472;DHT22;3777;48.722;8.110;2024-02-14T04:35:33;10.40;99.90
7472;DHT22;3777;48.722;8.110;2024-02-14T04:38:00;10.40;99.90
7472;DHT22;3777;48.722;8.110;2024-02-14T04:40:28;10.40;99.90
7472;DHT22;3777;48.722;8.110;2024-02-14T04:42:56;10.50;99.90
7472;DHT22;3777;48.722;8.110;2024-02-14T04:45:23;10.50;99.90
7472;DHT22;3777;48.722;8.110;2024-02-14T04:47:49;10.50;99.90
7472;DHT22;3777;48.722;8.110;2024-02-14T04:50:16;10.50;99.90
7472;DHT22;3777;48.722;8.110;2024-02-14T04:52:44;10.60;99.90
7472;DHT22;3777;48.722;8.110;2024-02-14T04:55:11;10.60;99.90
7472;DHT22;3777;48.722;8.110;2024-02-14T04:57:38;10.60;99.90
7472;DHT22;3777;48.722;8.110;2024-02-14T05:00:07;10.60;99.90
7472;DHT22;3777;48.722;8.110;2024-02-14T05:02:35;10.60;99.90
7472;DHT22;3777;48.722;8.110;2024-02-14T05:05:03;10.70;99.90
7472;DHT22;3777;48.722;8.110;2024-02-14T05:07:29;10.70;99.90
7472;DHT22;3777;48.722;8.110;2024-02-14T05:09:57;10.70;99.90
7472;DHT22;3777;48.722;8.110;2024-02-14T05:12:24;10.70;99.90
7472;DHT22;3777;48.722;8.110;2024-02-14T05:14:50;10.70;99.90
7472;DHT22;3777;48.722;8.110;2024-02-14T05:17:19;10.70;99.90
7472;DHT22;3777;48.722;8.110;2024-02-14T05:19:45;10.70;99.90
7472;DHT22;3777;48.722;8.110;2024-02-14T05:22:12;10.80;99.90
7472;DHT22;3777;48.722;8.110;2024-02-14T05:24:39;10.70;99.90
7472;DHT22;3777;48.722;8.110;2024-02-14T05:27:06;10.80;99.90
7472;DHT22;3777;48.722;8.110;2024-02-14T05:29:32;10.80;99.90
7472;DHT22;3777;48.722;8.110;2024-02-14T05:31:59;10.70;99.90
7472;DHT22;3777;48.722;8.110;2024-02-14T05:34:27;10.70;99.90
7472;DHT22;3777;48.722;8.110;2024-02-14T05:36:54;10.70;99.90
7472;DHT22;3777;48.722;8.110;2024-02-14T05:39:21;10.70;99.90
7472;DHT22;3777;48.722;8.110;2024-02-14T05:41:48;10.70;99.90
7472;DHT22;3777;48.722;8.110;2024-02-14T05:44:15;10.70;99.90
7472;DHT22;3777;48.722;8.110;2024-02-14T05:46:42;10.70;99.90
7472;DHT22;3777;48.722;8.110;2024-02-14T05:49:10;10.70;99.90
7472;DHT22;3777;48.722;8.110;2024-02-14T05:51:38;10.70;99.90
7472;DHT22;3777;48.722;8.110;2024-02-14T05:54:06;10.70;99.90
7472;DHT22;3777;48.722;8.110;2024-02-14T05:56:33;10.80;99.90
7472;DHT22;3777;48.722;8.110;2024-02-14T05:59:00;10.80;99.90
7472;DHT22;3777;48.722;8.110;2024-02-14T06:01:26;10.80;99.90
7472;DHT22;3777;48.722;8.110;2024-02-14T06:03:54;10.90;99.90
7472;DHT22;3777;48.722;8.110;2024-02-14T06:06:21;10.90;99.90
7472;DHT22;3777;48.722;8.110;2024-02-14T06:08:50;10.90;99.90
7472;DHT22;3777;48.722;8.110;2024-02-14T06:11:17;10.90;99.90
7472;DHT22;3777;48.722;8.110;2024-02-14T06:13:46;10.90;99.90
7472;DHT22;3777;48.722;8.110;2024-02-14T06:16:13;10.90;99.90
7472;DHT22;3777;48.722;8.110;2024-02-14T06:18:40;10.90;99.90
7472;DHT22;3777;48.722;8.110;2024-02-14T06:21:07;11.00;99.90
7472;DHT22;3777;48.722;8.110;2024-02-14T06:23:34;11.00;99.90
7472;DHT22;3777;48.722;8.110;2024-02-14T06:26:04;11.00;99.90
7472;DHT22;3777;48.722;8.110;2024-02-14T06:28:30;11.00;99.90
7472;DHT22;3777;48.722;8.110;2024-02-14T06:30:57;11.00;99.90
7472;DHT22;3777;48.722;8.110;2024-02-14T06:33:24;11.00;99.90
7472;DHT22;3777;48.722;8.110;2024-02-14T06:35:51;11.00;99.90
7472;DHT22;3777;48.722;8.110;2024-02-14T06:38:18;11.00;99.90
7472;DHT22;3777;48.722;8.110;2024-02-14T06:40:44;11.10;99.90
7472;DHT22;3777;48.722;8.110;2024-02-14T06:43:13;11.10;99.90
7472;DHT22;3777;48.722;8.110;2024-02-14T06:45:40;11.10;99.90
7472;DHT22;3777;48.722;8.110;2024-02-14T06:48:07;11.10;99.90
7472;DHT22;3777;48.722;8.110;2024-02-14T06:50:34;11.10;99.90
7472;DHT22;3777;48.722;8.110;2024-02-14T06:53:02;11.10;99.90
7472;DHT22;3777;48.722;8.110;2024-02-14T06:55:28;11.10;99.90
7472;DHT22;3777;48.722;8.110;2024-02-14T06:57:57;11.10;99.90
7472;DHT22;3777;48.722;8.110;2024-02-14T07:00:25;11.10;99.90
7472;DHT22;3777;48.722;8.110;2024-02-14T07:02:53;11.10;99.90
7472;DHT22;3777;48.722;8.110;2024-02-14T07:05:20;11.10;99.90
7472;DHT22;3777;48.722;8.110;2024-02-14T07:07:47;11.10;99.90
7472;DHT22;3777;48.722;8.110;2024-02-14T07:10:14;11.20;99.90
7472;DHT22;3777;48.722;8.110;2024-02-14T07:12:40;11.20;99.90
7472;DHT22;3777;48.722;8.110;2024-02-14T07:15:07;11.10;99.90
7472;DHT22;3777;48.722;8.110;2024-02-14T07:17:36;11.10;99.90
7472;DHT22;3777;48.722;8.110;2024-02-14T07:20:04;11.00;99.90
7472;DHT22;3777;48.722;8.110;2024-02-14T07:22:34;11.00;99.90
7472;DHT22;3777;48.722;8.110;2024-02-14T07:25:01;11.00;99.90
7472;DHT22;3777;48.722;8.110;2024-02-14T07:27:28;11.00;99.90
7472;DHT22;3777;48.722;8.110;2024-02-14T07:29:55;11.00;99.90
7472;DHT22;3777;48.722;8.110;2024-02-14T07:32:21;11.00;99.90
7472;DHT22;3777;48.722;8.110;2024-02-14T07:34:50;11.00;99.90
7472;DHT22;3777;48.722;8.110;2024-02-14T07:37:16;11.00;99.90
7472;DHT22;3777;48.722;8.110;2024-02-14T07:39:45;11.10;99.90
7472;DHT22;3777;48.722;8.110;2024-02-14T07:42:13;11.10;99.90
7472;DHT22;3777;48.722;8.110;2024-02-14T07:44:40;11.10;99.90
7472;DHT22;3777;48.722;8.110;2024-02-14T07:47:06;11.20;99.90
7472;DHT22;3777;48.722;8.110;2024-02-14T07:49:33;11.30;99.90
7472;DHT22;3777;48.722;8.110;2024-02-14T07:52:01;11.40;99.90
7472;DHT22;3777;48.722;8.110;2024-02-14T07:54:28;11.40;99.90
7472;DHT22;3777;48.722;8.110;2024-02-14T07:56:55;11.40;99.90
7472;DHT22;3777;48.722;8.110;2024-02-14T07:59:22;11.40;99.90
7472;DHT22;3777;48.722;8.110;2024-02-14T08:01:49;11.40;99.90
7472;DHT22;3777;48.722;8.110;2024-02-14T08:04:16;11.30;99.90
7472;DHT22;3777;48.722;8.110;2024-02-14T08:06:44;11.10;99.90
7472;DHT22;3777;48.722;8.110;2024-02-14T08:09:12;11.00;99.90
7472;DHT22;3777;48.722;8.110;2024-02-14T08:11:39;10.90;99.90
7472;DHT22;3777;48.722;8.110;2024-02-14T08:14:06;10.80;99.90
7472;DHT22;3777;48.722;8.110;2024-02-14T08:16:33;10.70;99.90
7472;DHT22;3777;48.722;8.110;2024-02-14T08:19:01;10.60;99.90
7472;DHT22;3777;48.722;8.110;2024-02-14T08:21:28;10.60;99.90
7472;DHT22;3777;48.722;8.110;2024-02-14T08:23:55;10.60;99.90
7472;DHT22;3777;48.722;8.110;2024-02-14T08:26:23;10.60;99.90
7472;DHT22;3777;48.722;8.110;2024-02-14T08:28:50;10.70;99.90
7472;DHT22;3777;48.722;8.110;2024-02-14T08:31:17;10.60;99.90
7472;DHT22;3777;48.722;8.110;2024-02-14T08:33:43;10.80;99.90
7472;DHT22;3777;48.722;8.110;2024-02-14T08:36:10;10.90;99.90
7472;DHT22;3777;48.722;8.110;2024-02-14T08:38:38;11.00;99.90
7472;DHT22;3777;48.722;8.110;2024-02-14T08:41:06;11.20;99.90
7472;DHT22;3777;48.722;8.110;2024-02-14T08:43:34;11.40;99.90
7472;DHT22;3777;48.722;8.110;2024-02-14T08:46:01;11.50;99.90
7472;DHT22;3777;48.722;8.110;2024-02-14T08:48:28;11.50;99.90
7472;DHT22;3777;48.722;8.110;2024-02-14T08:50:59;11.50;99.90
7472;DHT22;3777;48.722;8.110;2024-02-14T08:53:26;11.50;99.90
7472;DHT22;3777;48.722;8.110;2024-02-14T08:55:53;11.40;99.90
7472;DHT22;3777;48.722;8.110;2024-02-14T08:58:20;11.50;99.90
7472;DHT22;3777;48.722;8.110;2024-02-14T09:00:50;11.60;99.90
7472;DHT22;3777;48.722;8.110;2024-02-14T09:03:18;11.70;99.90
7472;DHT22;3777;48.722;8.110;2024-02-14T09:05:45;11.80;99.90
7472;DHT22;3777;48.722;8.110;2024-02-14T09:08:12;11.90;99.90
7472;DHT22;3777;48.722;8.110;2024-02-14T09:10:39;12.00;99.90
7472;DHT22;3777;48.722;8.110;2024-02-14T09:13:06;12.10;99.90
7472;DHT22;3777;48.722;8.110;2024-02-14T09:15:33;12.20;99.90
7472;DHT22;3777;48.722;8.110;2024-02-14T09:18:01;12.30;99.90
7472;DHT22;3777;48.722;8.110;2024-02-14T09:20:28;12.40;99.90
7472;DHT22;3777;48.722;8.110;2024-02-14T09:22:56;12.30;99.90
7472;DHT22;3777;48.722;8.110;2024-02-14T09:25:23;12.40;99.90
7472;DHT22;3777;48.722;8.110;2024-02-14T09:27:50;12.50;99.90
7472;DHT22;3777;48.722;8.110;2024-02-14T09:30:18;12.60;99.90
7472;DHT22;3777;48.722;8.110;2024-02-14T09:32:45;12.60;99.90
7472;DHT22;3777;48.722;8.110;2024-02-14T09:35:14;12.60;99.90
7472;DHT22;3777;48.722;8.110;2024-02-14T09:37:41;12.70;99.90
7472;DHT22;3777;48.722;8.110;2024-02-14T09:40:09;12.60;99.90
7472;DHT22;3777;48.722;8.110;2024-02-14T09:42:44;12.60;99.90
7472;DHT22;3777;48.722;8.110;2024-02-14T09:45:11;12.70;99.90
7472;DHT22;3777;48.722;8.110;2024-02-14T09:47:39;12.70;99.90
7472;DHT22;3777;48.722;8.110;2024-02-14T09:50:08;12.80;99.90
7472;DHT22;3777;48.722;8.110;2024-02-14T09:52:38;13.00;99.90
7472;DHT22;3777;48.722;8.110;2024-02-14T09:55:05;13.20;99.90
7472;DHT22;3777;48.722;8.110;2024-02-14T09:57:33;13.30;99.90
7472;DHT22;3777;48.722;8.110;2024-02-14T10:00:00;13.40;99.90
7472;DHT22;3777;48.722;8.110;2024-02-14T10:02:29;13.40;99.90
7472;DHT22;3777;48.722;8.110;2024-02-14T10:04:56;13.50;99.90
7472;DHT22;3777;48.722;8.110;2024-02-14T10:07:23;13.50;99.90
7472;DHT22;3777;48.722;8.110;2024-02-14T10:09:51;13.50;99.90
7472;DHT22;3777;48.722;8.110;2024-02-14T10:12:19;13.50;99.90
7472;DHT22;3777;48.722;8.110;2024-02-14T10:14:46;13.60;99.90
7472;DHT22;3777;48.722;8.110;2024-02-14T10:17:17;13.40;99.90
7472;DHT22;3777;48.722;8.110;2024-02-14T10:19:55;13.30;99.90
7472;DHT22;3777;48.722;8.110;2024-02-14T10:22:22;13.20;99.90
7472;DHT22;3777;48.722;8.110;2024-02-14T10:24:49;13.00;99.90
7472;DHT22;3777;48.722;8.110;2024-02-14T10:27:17;12.90;99.90
7472;DHT22;3777;48.722;8.110;2024-02-14T10:29:43;12.80;99.90
7472;DHT22;3777;48.722;8.110;2024-02-14T10:32:14;13.00;99.90
7472;DHT22;3777;48.722;8.110;2024-02-14T10:34:43;13.20;99.90
7472;DHT22;3777;48.722;8.110;2024-02-14T10:37:14;13.40;99.90
7472;DHT22;3777;48.722;8.110;2024-02-14T10:39:42;13.20;99.90
7472;DHT22;3777;48.722;8.110;2024-02-14T10:42:10;13.40;99.90
7472;DHT22;3777;48.722;8.110;2024-02-14T10:44:38;13.50;99.90
7472;DHT22;3777;48.722;8.110;2024-02-14T10:47:08;13.70;99.90
7472;DHT22;3777;48.722;8.110;2024-02-14T10:49:37;13.80;99.90
7472;DHT22;3777;48.722;8.110;2024-02-14T10:52:06;13.80;99.90
7472;DHT22;3777;48.722;8.110;2024-02-14T10:54:35;13.90;99.90
7472;DHT22;3777;48.722;8.110;2024-02-14T10:57:05;14.10;99.90
7472;DHT22;3777;48.722;8.110;2024-02-14T10:59:43;14.50;99.90
7472;DHT22;3777;48.722;8.110;2024-02-14T11:02:11;14.50;99.90
7472;DHT22;3777;48.722;8.110;2024-02-14T11:04:39;14.40;99.90
7472;DHT22;3777;48.722;8.110;2024-02-14T11:07:09;14.60;99.90
7472;DHT22;3777;48.722;8.110;2024-02-14T11:09:36;14.60;99.90
7472;DHT22;3777;48.722;8.110;2024-02-14T11:12:06;14.90;99.90
7472;DHT22;3777;48.722;8.110;2024-02-14T11:14:34;15.20;99.90
7472;DHT22;3777;48.722;8.110;2024-02-14T11:17:04;15.20;99.90
7472;DHT22;3777;48.722;8.110;2024-02-14T11:19:35;15.20;99.90
7472;DHT22;3777;48.722;8.110;2024-02-14T11:22:10;14.80;99.90
7472;DHT22;3777;48.722;8.110;2024-02-14T11:24:38;14.40;99.90
7472;DHT22;3777;48.722;8.110;2024-02-14T11:27:09;14.30;99.90
7472;DHT22;3777;48.722;8.110;2024-02-14T11:29:39;14.30;99.90
7472;DHT22;3777;48.722;8.110;2024-02-14T11:32:08;14.40;99.90
7472;DHT22;3777;48.722;8.110;2024-02-14T11:34:35;14.40;99.90
7472;DHT22;3777;48.722;8.110;2024-02-14T11:37:02;14.40;99.90
7472;DHT22;3777;48.722;8.110;2024-02-14T11:39:29;14.40;99.90
7472;DHT22;3777;48.722;8.110;2024-02-14T11:41:58;14.50;99.90
7472;DHT22;3777;48.722;8.110;2024-02-14T11:44:26;14.50;99.90
7472;DHT22;3777;48.722;8.110;2024-02-14T11:46:54;14.50;99.90
7472;DHT22;3777;48.722;8.110;2024-02-14T11:49:22;14.60;99.90
7472;DHT22;3777;48.722;8.110;2024-02-14T11:51:49;14.60;99.90
7472;DHT22;3777;48.722;8.110;2024-02-14T11:54:16;14.40;99.90
7472;DHT22;3777;48.722;8.110;2024-02-14T11:56:46;14.60;99.90
7472;DHT22;3777;48.722;8.110;2024-02-14T11:59:13;14.80;99.90
7472;DHT22;3777;48.722;8.110;2024-02-14T12:01:42;14.90;99.90
7472;DHT22;3777;48.722;8.110;2024-02-14T12:04:12;14.80;99.90
7472;DHT22;3777;48.722;8.110;2024-02-14T12:06:40;14.90;99.90
7472;DHT22;3777;48.722;8.110;2024-02-14T12:09:08;14.90;99.90
7472;DHT22;3777;48.722;8.110;2024-02-14T12:11:36;15.10;99.90
7472;DHT22;3777;48.722;8.110;2024-02-14T12:14:04;15.20;99.90
7472;DHT22;3777;48.722;8.110;2024-02-14T12:16:32;14.90;99.90
7472;DHT22;3777;48.722;8.110;2024-02-14T12:19:04;14.90;99.90
7472;DHT22;3777;48.722;8.110;2024-02-14T12:21:34;14.90;99.90
7472;DHT22;3777;48.722;8.110;2024-02-14T12:24:04;14.90;99.90
7472;DHT22;3777;48.722;8.110;2024-02-14T12:26:31;15.00;99.90
7472;DHT22;3777;48.722;8.110;2024-02-14T12:28:57;15.00;99.90
7472;DHT22;3777;48.722;8.110;2024-02-14T12:31:24;14.90;99.90
7472;DHT22;3777;48.722;8.110;2024-02-14T12:33:53;15.10;99.90
7472;DHT22;3777;48.722;8.110;2024-02-14T12:36:21;15.30;99.90
7472;DHT22;3777;48.722;8.110;2024-02-14T12:38:48;15.30;99.90
7472;DHT22;3777;48.722;8.110;2024-02-14T12:41:16;15.10;99.90
7472;DHT22;3777;48.722;8.110;2024-02-14T12:43:43;15.20;99.90
7472;DHT22;3777;48.722;8.110;2024-02-14T12:46:09;15.20;99.90
7472;DHT22;3777;48.722;8.110;2024-02-14T12:48:36;15.30;99.90
7472;DHT22;3777;48.722;8.110;2024-02-14T12:51:04;15.30;99.90
7472;DHT22;3777;48.722;8.110;2024-02-14T12:53:30;15.30;99.90
7472;DHT22;3777;48.722;8.110;2024-02-14T12:55:57;15.30;99.90
7472;DHT22;3777;48.722;8.110;2024-02-14T12:58:26;15.40;99.90
7472;DHT22;3777;48.722;8.110;2024-02-14T13:00:53;15.40;99.90
7472;DHT22;3777;48.722;8.110;2024-02-14T13:03:20;15.50;99.90
7472;DHT22;3777;48.722;8.110;2024-02-14T13:05:47;15.60;99.90
7472;DHT22;3777;48.722;8.110;2024-02-14T13:08:13;15.50;99.90
7472;DHT22;3777;48.722;8.110;2024-02-14T13:10:43;15.40;99.90
7472;DHT22;3777;48.722;8.110;2024-02-14T13:13:10;15.20;99.90
7472;DHT22;3777;48.722;8.110;2024-02-14T13:15:38;15.10;99.90
7472;DHT22;3777;48.722;8.110;2024-02-14T13:18:06;15.10;99.90
7472;DHT22;3777;48.722;8.110;2024-02-14T13:20:33;15.30;99.90
7472;DHT22;3777;48.722;8.110;2024-02-14T13:23:00;15.20;99.90
7472;DHT22;3777;48.722;8.110;2024-02-14T13:25:28;15.20;99.90
7472;DHT22;3777;48.722;8.110;2024-02-14T13:27:54;15.10;99.90
7472;DHT22;3777;48.722;8.110;2024-02-14T13:30:23;15.20;99.90
7472;DHT22;3777;48.722;8.110;2024-02-14T13:32:51;15.20;99.90
7472;DHT22;3777;48.722;8.110;2024-02-14T13:35:17;15.20;99.90
7472;DHT22;3777;48.722;8.110;2024-02-14T13:37:44;15.20;99.90
7472;DHT22;3777;48.722;8.110;2024-02-14T13:40:12;15.30;99.90
7472;DHT22;3777;48.722;8.110;2024-02-14T13:42:39;15.10;99.90
7472;DHT22;3777;48.722;8.110;2024-02-14T13:45:06;15.10;99.90
7472;DHT22;3777;48.722;8.110;2024-02-14T13:47:35;15.10;99.90
7472;DHT22;3777;48.722;8.110;2024-02-14T13:50:07;15.20;99.90
7472;DHT22;3777;48.722;8.110;2024-02-14T13:52:34;15.10;99.90
7472;DHT22;3777;48.722;8.110;2024-02-14T13:55:01;15.10;99.90
7472;DHT22;3777;48.722;8.110;2024-02-14T13:57:30;15.20;99.90
7472;DHT22;3777;48.722;8.110;2024-02-14T13:59:57;15.40;99.90
7472;DHT22;3777;48.722;8.110;2024-02-14T14:02:24;15.50;99.90
7472;DHT22;3777;48.722;8.110;2024-02-14T14:04:51;15.70;99.90
7472;DHT22;3777;48.722;8.110;2024-02-14T14:07:20;16.00;99.90
7472;DHT22;3777;48.722;8.110;2024-02-14T14:09:49;16.00;99.90
7472;DHT22;3777;48.722;8.110;2024-02-14T14:12:16;16.00;99.90
7472;DHT22;3777;48.722;8.110;2024-02-14T14:14:42;16.00;99.90
7472;DHT22;3777;48.722;8.110;2024-02-14T14:17:09;15.80;99.90
7472;DHT22;3777;48.722;8.110;2024-02-14T14:19:36;15.90;99.90
7472;DHT22;3777;48.722;8.110;2024-02-14T14:22:03;15.80;99.90
7472;DHT22;3777;48.722;8.110;2024-02-14T14:24:31;15.90;99.90
7472;DHT22;3777;48.722;8.110;2024-02-14T14:26:58;16.00;99.90
7472;DHT22;3777;48.722;8.110;2024-02-14T14:29:25;16.00;99.90
7472;DHT22;3777;48.722;8.110;2024-02-14T14:31:53;16.10;99.90
7472;DHT22;3777;48.722;8.110;2024-02-14T14:34:20;16.20;99.90
7472;DHT22;3777;48.722;8.110;2024-02-14T14:36:47;16.20;99.90
7472;DHT22;3777;48.722;8.110;2024-02-14T14:39:13;16.30;99.90
7472;DHT22;3777;48.722;8.110;2024-02-14T14:41:42;16.30;99.90
7472;DHT22;3777;48.722;8.110;2024-02-14T14:44:09;16.40;99.90
7472;DHT22;3777;48.722;8.110;2024-02-14T14:46:37;16.30;99.90
7472;DHT22;3777;48.722;8.110;2024-02-14T14:49:08;16.20;99.90
7472;DHT22;3777;48.722;8.110;2024-02-14T14:51:34;16.20;99.90
7472;DHT22;3777;48.722;8.110;2024-02-14T14:54:01;15.90;99.90
7472;DHT22;3777;48.722;8.110;2024-02-14T14:56:28;15.80;99.90
7472;DHT22;3777;48.722;8.110;2024-02-14T14:58:56;15.70;99.90
7472;DHT22;3777;48.722;8.110;2024-02-14T15:01:25;15.60;99.90
7472;DHT22;3777;48.722;8.110;2024-02-14T15:03:53;15.70;99.90
7472;DHT22;3777;48.722;8.110;2024-02-14T15:06:20;15.60;99.90
7472;DHT22;3777;48.722;8.110;2024-02-14T15:08:47;15.70;99.90
7472;DHT22;3777;48.722;8.110;2024-02-14T15:11:14;15.60;99.90
7472;DHT22;3777;48.722;8.110;2024-02-14T15:13:43;15.70;99.90
7472;DHT22;3777;48.722;8.110;2024-02-14T15:16:13;15.70;99.90
7472;DHT22;3777;48.722;8.110;2024-02-14T15:18:40;15.70;99.90
7472;DHT22;3777;48.722;8.110;2024-02-14T15:21:09;15.70;99.90
7472;DHT22;3777;48.722;8.110;2024-02-14T15:23:36;15.70;99.90
7472;DHT22;3777;48.722;8.110;2024-02-14T15:26:03;15.70;99.90
7472;DHT22;3777;48.722;8.110;2024-02-14T15:28:32;15.80;99.90
7472;DHT22;3777;48.722;8.110;2024-02-14T15:31:06;15.80;99.90
7472;DHT22;3777;48.722;8.110;2024-02-14T15:33:52;15.70;99.90
7472;DHT22;3777;48.722;8.110;2024-02-14T15:36:21;15.70;99.90
7472;DHT22;3777;48.722;8.110;2024-02-14T15:38:48;15.70;99.90
7472;DHT22;3777;48.722;8.110;2024-02-14T15:41:15;15.80;99.90
7472;DHT22;3777;48.722;8.110;2024-02-14T15:43:43;15.70;99.90
7472;DHT22;3777;48.722;8.110;2024-02-14T15:46:11;15.70;99.90
7472;DHT22;3777;48.722;8.110;2024-02-14T15:48:38;15.70;99.90
7472;DHT22;3777;48.722;8.110;2024-02-14T15:51:07;15.70;99.90
7472;DHT22;3777;48.722;8.110;2024-02-14T15:53:34;15.70;99.90
7472;DHT22;3777;48.722;8.110;2024-02-14T15:56:03;15.70;99.90
7472;DHT22;3777;48.722;8.110;2024-02-14T15:58:31;15.60;99.90
7472;DHT22;3777;48.722;8.110;2024-02-14T16:00:58;15.70;99.90
7472;DHT22;3777;48.722;8.110;2024-02-14T16:03:24;15.60;99.90
7472;DHT22;3777;48.722;8.110;2024-02-14T16:05:53;15.60;99.90
7472;DHT22;3777;48.722;8.110;2024-02-14T16:08:21;15.50;99.90